createdAt,value
2023-06-18T00:00:28.492Z,100.00
2023-06-18T00:02:55.438Z,100.00
2023-06-18T00:05:22.296Z,100.00
2023-06-18T00:07:49.150Z,100.00
2023-06-18T00:10:16.174Z,100.00
2023-06-18T00:12:43.491Z,100.00
2023-06-18T00:15:11.052Z,100.00
2023-06-18T00:17:38.365Z,100.00
2023-06-18T00:20:06.686Z,100.00
2023-06-18T00:22:37.978Z,100.00
2023-06-18T00:25:07.108Z,100.00
2023-06-18T00:27:34.449Z,100.00
2023-06-18T00:30:01.515Z,100.00
2023-06-18T00:32:29.525Z,100.00
2023-06-18T00:34:56.444Z,100.00
2023-06-18T00:37:27.260Z,100.00
2023-06-18T00:39:54.561Z,100.00
2023-06-18T00:42:21.722Z,100.00
2023-06-18T00:44:48.748Z,100.00
2023-06-18T00:47:18.841Z,100.00
2023-06-18T00:49:46.923Z,100.00
2023-06-18T00:52:14.750Z,100.00
2023-06-18T00:54:42.660Z,100.00
2023-06-18T00:57:10.311Z,100.00
2023-06-18T00:59:38.840Z,100.00
2023-06-18T01:02:06.298Z,100.00
2023-06-18T01:04:33.911Z,100.00
2023-06-18T01:07:02.748Z,100.00
2023-06-18T01:09:31.938Z,100.00
2023-06-18T01:12:01.720Z,100.00
2023-06-18T01:14:32.035Z,100.00
2023-06-18T01:17:02.848Z,100.00
2023-06-18T01:19:53.361Z,100.00
2023-06-18T01:22:35.564Z,100.00
2023-06-18T01:25:04.975Z,100.00
2023-06-18T01:27:41.702Z,100.00
2023-06-18T01:30:10.781Z,100.00
2023-06-18T01:32:38.127Z,100.00
2023-06-18T01:35:06.535Z,100.00
2023-06-18T01:37:51.593Z,100.00
2023-06-18T01:40:37.002Z,100.00
2023-06-18T01:43:07.051Z,100.00
2023-06-18T01:46:04.405Z,100.00
2023-06-18T01:48:36.961Z,100.00
2023-06-18T01:51:07.182Z,100.00
2023-06-18T01:53:36.333Z,100.00
2023-06-18T01:56:04.052Z,100.00
2023-06-18T01:58:35.050Z,100.00
2023-06-18T02:01:02.303Z,100.00
2023-06-18T02:03:29.436Z,100.00
2023-06-18T02:05:57.013Z,100.00
2023-06-18T02:08:24.020Z,100.00
2023-06-18T02:10:51.269Z,100.00
2023-06-18T02:13:18.217Z,100.00
2023-06-18T02:15:45.425Z,100.00
2023-06-18T02:18:13.391Z,100.00
2023-06-18T02:20:41.069Z,100.00
2023-06-18T02:23:08.172Z,100.00
2023-06-18T02:25:35.327Z,100.00
2023-06-18T02:28:07.616Z,100.00
2023-06-18T02:30:35.366Z,100.00
2023-06-18T02:33:02.576Z,100.00
2023-06-18T02:35:30.168Z,100.00
2023-06-18T02:37:57.883Z,100.00
2023-06-18T02:40:24.838Z,100.00
2023-06-18T02:42:53.479Z,100.00
2023-06-18T02:45:22.193Z,100.00
2023-06-18T02:47:51.000Z,100.00
2023-06-18T02:50:19.455Z,100.00
2023-06-18T02:52:48.351Z,100.00
2023-06-18T02:55:15.879Z,100.00
2023-06-18T02:57:43.362Z,100.00
2023-06-18T03:00:14.163Z,100.00
2023-06-18T03:02:45.756Z,100.00
2023-06-18T03:05:12.765Z,100.00
2023-06-18T03:07:39.579Z,100.00
2023-06-18T03:10:06.877Z,100.00
2023-06-18T03:12:33.594Z,100.00
2023-06-18T03:15:00.541Z,100.00
2023-06-18T03:17:27.237Z,100.00
2023-06-18T03:19:54.113Z,100.00
2023-06-18T03:22:21.535Z,100.00
2023-06-18T03:24:50.456Z,100.00
2023-06-18T03:27:17.689Z,100.00
2023-06-18T03:29:45.277Z,100.00
2023-06-18T03:32:12.312Z,100.00
2023-06-18T03:34:43.515Z,100.00
2023-06-18T03:37:10.772Z,100.00
2023-06-18T03:39:37.612Z,100.00
2023-06-18T03:42:04.625Z,100.00
2023-06-18T03:44:31.407Z,100.00
2023-06-18T03:46:58.540Z,100.00
2023-06-18T03:49:25.578Z,100.00
2023-06-18T03:51:52.401Z,100.00
2023-06-18T03:54:19.421Z,100.00
2023-06-18T03:56:46.315Z,100.00
2023-06-18T03:59:13.129Z,100.00
2023-06-18T04:01:40.047Z,100.00
2023-06-18T04:04:06.930Z,100.00
2023-06-18T04:06:33.808Z,100.00
2023-06-18T04:09:01.113Z,100.00
2023-06-18T04:11:28.392Z,100.00
2023-06-18T04:13:55.515Z,100.00
2023-06-18T04:16:22.362Z,100.00
2023-06-18T04:18:49.249Z,100.00
2023-06-18T04:21:15.931Z,100.00
2023-06-18T04:23:45.446Z,100.00
2023-06-18T04:26:12.403Z,100.00
2023-06-18T04:28:39.652Z,100.00
2023-06-18T04:31:06.544Z,100.00
2023-06-18T04:33:33.333Z,100.00
2023-06-18T04:36:00.165Z,100.00
2023-06-18T04:38:28.107Z,100.00
2023-06-18T04:40:55.083Z,100.00
2023-06-18T04:43:22.070Z,100.00
2023-06-18T04:45:51.331Z,97.73
2023-06-18T04:48:18.869Z,97.65
2023-06-18T04:50:46.068Z,97.85
2023-06-18T04:53:13.921Z,94.46
2023-06-18T04:55:41.780Z,95.17
2023-06-18T04:58:08.659Z,93.29
2023-06-18T05:00:35.665Z,93.72
2023-06-18T05:03:03.629Z,94.89
2023-06-18T05:05:31.223Z,93.89
2023-06-18T05:07:58.384Z,92.40
2023-06-18T05:10:25.724Z,90.52
2023-06-18T05:12:52.626Z,89.00
2023-06-18T05:15:19.582Z,87.99
2023-06-18T05:17:46.611Z,89.25
2023-06-18T05:20:14.072Z,88.74
2023-06-18T05:22:41.752Z,88.46
2023-06-18T05:25:09.144Z,87.79
2023-06-18T05:27:36.209Z,85.76
2023-06-18T05:30:04.330Z,85.83
2023-06-18T05:32:31.398Z,85.89
2023-06-18T05:34:58.272Z,83.95
2023-06-18T05:37:25.127Z,84.52
2023-06-18T05:39:54.913Z,84.99
2023-06-18T05:42:21.727Z,84.36
2023-06-18T05:44:48.876Z,82.42
2023-06-18T05:47:16.013Z,80.63
2023-06-18T05:49:42.787Z,82.35
2023-06-18T05:52:09.851Z,83.55
2023-06-18T05:54:36.845Z,82.47
2023-06-18T05:57:04.063Z,81.34
2023-06-18T05:59:31.105Z,79.66
2023-06-18T06:01:58.107Z,80.26
2023-06-18T06:04:27.520Z,78.98
2023-06-18T06:06:56.242Z,79.64
2023-06-18T06:09:23.224Z,80.63
2023-06-18T06:11:50.031Z,81.06
2023-06-18T06:14:16.951Z,83.37
2023-06-18T06:16:44.242Z,83.80
2023-06-18T06:19:11.663Z,82.54
2023-06-18T06:21:38.462Z,81.04
2023-06-18T06:24:05.807Z,79.51
2023-06-18T06:26:32.733Z,79.94
2023-06-18T06:28:59.561Z,79.79
2023-06-18T06:31:26.674Z,80.43
2023-06-18T06:33:55.437Z,79.56
2023-06-18T06:36:23.987Z,80.25
2023-06-18T06:38:50.812Z,79.32
2023-06-18T06:41:17.781Z,80.29
2023-06-18T06:43:44.557Z,81.58
2023-06-18T06:46:11.452Z,82.51
2023-06-18T06:48:39.621Z,81.70
2023-06-18T06:51:06.835Z,81.29
2023-06-18T06:53:34.230Z,82.76
2023-06-18T06:56:01.032Z,82.34
2023-06-18T06:58:27.869Z,82.27
2023-06-18T07:00:54.978Z,82.35
2023-06-18T07:03:22.251Z,83.82
2023-06-18T07:05:49.205Z,83.73
2023-06-18T07:08:16.211Z,83.98
2023-06-18T07:10:43.041Z,83.23
2023-06-18T07:13:10.035Z,83.59
2023-06-18T07:15:36.800Z,82.36
2023-06-18T07:18:03.806Z,82.17
2023-06-18T07:20:30.845Z,81.55
2023-06-18T07:22:57.647Z,79.15
2023-06-18T07:25:24.449Z,77.57
2023-06-18T07:27:51.590Z,77.12
2023-06-18T07:30:18.649Z,78.33
2023-06-18T07:32:45.408Z,77.55
2023-06-18T07:35:12.257Z,77.22
2023-06-18T07:37:39.374Z,77.36
2023-06-18T07:40:07.380Z,73.96
2023-06-18T07:42:34.273Z,75.09
2023-06-18T07:45:01.313Z,76.05
2023-06-18T07:47:28.066Z,75.65
2023-06-18T07:49:55.221Z,77.93
2023-06-18T07:52:22.368Z,78.89
2023-06-18T07:54:51.993Z,79.02
2023-06-18T07:57:18.867Z,79.21
2023-06-18T07:59:46.367Z,81.14
2023-06-18T08:02:13.031Z,75.15
2023-06-18T08:04:40.026Z,75.40
2023-06-18T08:07:06.913Z,75.47
2023-06-18T08:09:35.155Z,77.88
2023-06-18T08:12:01.964Z,77.38
2023-06-18T08:14:29.682Z,76.62
2023-06-18T08:16:56.524Z,77.28
2023-06-18T08:19:23.594Z,77.68
2023-06-18T08:21:50.638Z,77.84
2023-06-18T08:24:17.577Z,77.50
2023-06-18T08:26:44.911Z,78.20
2023-06-18T08:29:11.945Z,76.24
2023-06-18T08:31:43.010Z,73.80
2023-06-18T08:34:09.875Z,73.61
2023-06-18T08:36:37.166Z,74.70
2023-06-18T08:39:04.157Z,71.82
2023-06-18T08:41:31.251Z,68.04
2023-06-18T08:43:59.117Z,63.50
2023-06-18T08:46:27.859Z,63.97
2023-06-18T08:49:00.367Z,65.79
2023-06-18T08:51:28.322Z,66.52
2023-06-18T08:54:10.208Z,66.67
2023-06-18T08:56:48.371Z,67.65
2023-06-18T08:59:15.679Z,66.68
2023-06-18T09:01:47.097Z,66.55
2023-06-18T09:04:14.336Z,66.43
2023-06-18T09:06:41.175Z,66.67
2023-06-18T09:09:08.349Z,66.05
2023-06-18T09:11:37.373Z,66.60
2023-06-18T09:14:05.149Z,65.23
2023-06-18T09:16:32.128Z,65.08
2023-06-18T09:19:03.998Z,65.37
2023-06-18T09:21:44.378Z,66.65
2023-06-18T09:24:17.260Z,68.11
2023-06-18T09:26:44.393Z,67.95
2023-06-18T09:29:12.747Z,67.18
2023-06-18T09:31:43.405Z,65.40
2023-06-18T09:34:19.155Z,66.42
2023-06-18T09:36:48.566Z,66.19
2023-06-18T09:39:23.687Z,63.87
2023-06-18T09:41:53.146Z,61.72
2023-06-18T09:44:21.752Z,60.84
2023-06-18T09:46:51.880Z,58.27
2023-06-18T09:49:20.810Z,56.52
2023-06-18T09:51:50.762Z,54.96
2023-06-18T09:54:18.037Z,57.02
2023-06-18T09:57:05.368Z,56.22
2023-06-18T09:59:32.474Z,54.74
2023-06-18T10:01:59.806Z,57.42
2023-06-18T10:04:26.822Z,55.74
2023-06-18T10:07:20.224Z,54.05
2023-06-18T10:09:48.581Z,56.34
2023-06-18T10:12:19.236Z,57.40
2023-06-18T10:14:49.786Z,57.12
2023-06-18T10:17:24.882Z,55.88
2023-06-18T10:20:09.796Z,54.90
2023-06-18T10:22:59.656Z,55.65
2023-06-18T10:25:27.072Z,58.14
2023-06-18T10:27:54.112Z,61.20
2023-06-18T10:30:21.324Z,60.96
2023-06-18T10:32:49.041Z,63.68
2023-06-18T10:35:17.118Z,63.52
2023-06-18T10:37:45.813Z,64.29
2023-06-18T10:40:13.520Z,63.89
2023-06-18T10:42:40.884Z,63.25
2023-06-18T10:45:12.364Z,63.64
2023-06-18T10:47:40.198Z,65.05
2023-06-18T10:50:15.741Z,65.61
2023-06-18T10:52:52.425Z,65.75
2023-06-18T10:55:19.308Z,66.21
2023-06-18T10:57:48.694Z,66.65
2023-06-18T11:00:30.147Z,66.09
2023-06-18T11:03:12.898Z,65.69
2023-06-18T11:05:50.693Z,66.79
2023-06-18T11:08:28.488Z,66.82
2023-06-18T11:11:06.787Z,66.36
2023-06-18T11:13:38.893Z,66.73
2023-06-18T11:16:10.469Z,67.99
2023-06-18T11:18:38.206Z,67.19
2023-06-18T11:21:05.654Z,67.21
2023-06-18T11:23:33.571Z,66.16
2023-06-18T11:26:01.148Z,66.95
2023-06-18T11:28:27.966Z,68.75
2023-06-18T11:31:00.144Z,67.01
2023-06-18T11:33:31.486Z,67.27
2023-06-18T11:36:13.665Z,66.26
2023-06-18T11:38:42.152Z,65.99
2023-06-18T11:41:10.594Z,65.93
2023-06-18T11:43:48.479Z,66.09
2023-06-18T11:46:28.754Z,65.81
2023-06-18T11:48:56.617Z,65.12
2023-06-18T11:51:28.617Z,62.78
2023-06-18T11:53:56.333Z,61.80
2023-06-18T11:56:28.295Z,62.05
2023-06-18T11:58:59.278Z,62.64
2023-06-18T12:01:30.603Z,62.96
2023-06-18T12:04:05.754Z,61.55
2023-06-18T12:06:32.859Z,61.76
2023-06-18T12:09:11.410Z,60.41
2023-06-18T12:11:44.600Z,61.33
2023-06-18T12:14:17.064Z,60.95
2023-06-18T12:16:47.281Z,59.85
2023-06-18T12:19:14.911Z,60.15
2023-06-18T12:21:42.238Z,60.00
2023-06-18T12:24:09.130Z,60.69
2023-06-18T12:26:36.164Z,58.72
2023-06-18T12:29:03.711Z,59.88
2023-06-18T12:31:30.971Z,56.48
2023-06-18T12:34:01.523Z,56.13
2023-06-18T12:36:30.720Z,54.64
2023-06-18T12:38:57.763Z,54.46
2023-06-18T12:41:30.777Z,56.88
2023-06-18T12:43:58.624Z,55.59
2023-06-18T12:46:28.989Z,53.58
2023-06-18T12:48:58.679Z,55.27
2023-06-18T12:51:47.975Z,53.95
2023-06-18T12:54:19.670Z,53.84
2023-06-18T12:56:49.000Z,55.33
2023-06-18T12:59:20.409Z,55.16
2023-06-18T13:01:48.363Z,55.22
2023-06-18T13:04:17.415Z,58.67
2023-06-18T13:06:47.079Z,58.64
2023-06-18T13:09:14.185Z,61.89
2023-06-18T13:11:41.387Z,60.29
2023-06-18T13:14:18.210Z,58.83
2023-06-18T13:16:53.559Z,57.63
2023-06-18T13:19:21.579Z,60.03
2023-06-18T13:21:48.509Z,57.78
2023-06-18T13:24:15.468Z,58.94
2023-06-18T13:26:42.590Z,57.54
2023-06-18T13:29:10.712Z,55.95
2023-06-18T13:31:38.084Z,57.00
2023-06-18T13:34:04.958Z,57.29
2023-06-18T13:36:32.560Z,58.63
2023-06-18T13:39:00.008Z,59.92
2023-06-18T13:41:27.666Z,58.07
2023-06-18T13:43:54.550Z,58.01
2023-06-18T13:46:22.080Z,57.01
2023-06-18T13:48:48.841Z,56.75
2023-06-18T13:51:16.233Z,55.82
2023-06-18T13:53:42.899Z,57.97
2023-06-18T13:56:10.053Z,57.51
2023-06-18T13:58:36.922Z,57.38
2023-06-18T14:01:03.903Z,57.89
2023-06-18T14:03:31.450Z,55.19
2023-06-18T14:05:58.535Z,56.20
2023-06-18T14:08:25.706Z,56.48
2023-06-18T14:10:52.952Z,54.50
2023-06-18T14:13:19.886Z,56.11
2023-06-18T14:15:48.629Z,55.09
2023-06-18T14:18:16.016Z,54.09
2023-06-18T14:20:42.715Z,53.38
2023-06-18T14:23:09.728Z,53.76
2023-06-18T14:25:36.634Z,54.55
2023-06-18T14:28:04.764Z,54.58
2023-06-18T14:30:31.819Z,54.48
2023-06-18T14:32:58.775Z,56.05
2023-06-18T14:35:26.688Z,53.26
2023-06-18T14:37:54.016Z,55.94
2023-06-18T14:40:21.097Z,56.17
2023-06-18T14:42:48.614Z,57.80
2023-06-18T14:45:16.532Z,59.52
2023-06-18T14:47:43.467Z,60.31
2023-06-18T14:50:11.434Z,59.61
2023-06-18T14:52:39.413Z,57.34
2023-06-18T14:55:07.303Z,56.12
2023-06-18T14:57:34.163Z,55.87
2023-06-18T15:00:01.100Z,56.61
2023-06-18T15:02:30.182Z,55.08
2023-06-18T15:04:58.823Z,55.90
2023-06-18T15:07:26.381Z,57.91
2023-06-18T15:09:56.287Z,58.34
2023-06-18T15:12:23.542Z,56.59
2023-06-18T15:14:50.886Z,57.59
2023-06-18T15:17:17.740Z,57.69
2023-06-18T15:19:44.792Z,57.98
2023-06-18T15:22:11.925Z,58.37
2023-06-18T15:24:38.777Z,59.59
2023-06-18T15:27:06.206Z,60.50
2023-06-18T15:29:36.962Z,62.93
2023-06-18T15:32:03.951Z,64.57
2023-06-18T15:34:30.771Z,65.10
2023-06-18T15:36:58.435Z,65.38
2023-06-18T15:39:26.729Z,65.69
2023-06-18T15:41:53.858Z,65.27
2023-06-18T15:44:20.841Z,65.38
2023-06-18T15:46:47.774Z,66.15
2023-06-18T15:49:14.888Z,66.21
2023-06-18T15:51:42.004Z,67.22
2023-06-18T15:54:08.822Z,69.36
2023-06-18T15:56:36.066Z,69.79
2023-06-18T15:59:02.956Z,70.03
2023-06-18T16:01:30.008Z,71.66
2023-06-18T16:03:58.638Z,72.54
2023-06-18T16:06:25.510Z,72.73
2023-06-18T16:08:52.390Z,74.73
2023-06-18T16:11:19.409Z,74.00
2023-06-18T16:13:46.236Z,73.99
2023-06-18T16:16:13.304Z,73.73
2023-06-18T16:18:40.497Z,74.32
2023-06-18T16:21:08.905Z,75.98
2023-06-18T16:23:43.209Z,75.49
2023-06-18T16:26:09.996Z,74.93
2023-06-18T16:28:37.031Z,75.70
2023-06-18T16:31:03.867Z,74.61
2023-06-18T16:33:30.656Z,74.78
2023-06-18T16:35:57.868Z,75.52
2023-06-18T16:38:24.724Z,76.32
2023-06-18T16:40:51.458Z,77.06
2023-06-18T16:43:19.742Z,77.95
2023-06-18T16:45:48.127Z,78.65
2023-06-18T16:48:15.087Z,78.20
2023-06-18T16:50:42.180Z,78.11
2023-06-18T16:53:09.221Z,79.56
2023-06-18T16:55:36.948Z,81.59
2023-06-18T16:58:03.752Z,81.09
2023-06-18T17:00:32.659Z,81.70
2023-06-18T17:02:59.554Z,82.15
2023-06-18T17:05:28.083Z,82.74
2023-06-18T17:07:55.042Z,82.56
2023-06-18T17:10:22.373Z,83.68
2023-06-18T17:12:49.214Z,84.59
2023-06-18T17:15:16.220Z,86.01
2023-06-18T17:17:43.589Z,85.60
2023-06-18T17:20:10.828Z,86.33
2023-06-18T17:22:37.747Z,86.30
2023-06-18T17:25:05.184Z,88.08
2023-06-18T17:27:34.968Z,87.79
2023-06-18T17:30:02.228Z,88.84
2023-06-18T17:32:29.166Z,89.46
2023-06-18T17:34:55.909Z,92.20
2023-06-18T17:37:22.737Z,94.38
2023-06-18T17:39:49.713Z,94.26
2023-06-18T17:42:16.561Z,95.66
2023-06-18T17:44:43.409Z,95.27
2023-06-18T17:47:10.084Z,96.99
2023-06-18T17:49:39.916Z,97.46
2023-06-18T17:52:07.142Z,99.21
2023-06-18T17:54:33.986Z,99.53
2023-06-18T17:57:01.002Z,100.00
2023-06-18T17:59:27.827Z,100.00
2023-06-18T18:01:59.964Z,100.00
2023-06-18T18:04:28.216Z,100.00
2023-06-18T18:06:58.047Z,100.00
2023-06-18T18:09:26.116Z,100.00
2023-06-18T18:11:53.173Z,100.00
2023-06-18T18:14:24.688Z,100.00
2023-06-18T18:16:52.601Z,100.00
2023-06-18T18:19:20.302Z,100.00
2023-06-18T18:21:47.143Z,100.00
2023-06-18T18:24:14.363Z,100.00
2023-06-18T18:26:48.530Z,100.00
2023-06-18T18:29:17.039Z,100.00
2023-06-18T18:31:44.643Z,100.00
2023-06-18T18:34:12.034Z,100.00
2023-06-18T18:36:39.059Z,100.00
2023-06-18T18:39:06.223Z,100.00
2023-06-18T18:41:33.107Z,100.00
2023-06-18T18:44:00.152Z,100.00
2023-06-18T18:46:27.465Z,100.00
2023-06-18T18:48:54.453Z,100.00
2023-06-18T18:51:21.550Z,100.00
2023-06-18T18:53:51.487Z,100.00
2023-06-18T18:56:19.352Z,100.00
2023-06-18T18:58:46.318Z,100.00
2023-06-18T19:01:13.448Z,100.00
2023-06-18T19:03:42.511Z,100.00
2023-06-18T19:06:10.336Z,100.00
2023-06-18T19:08:38.875Z,100.00
2023-06-18T19:11:06.473Z,100.00
2023-06-18T19:13:34.111Z,100.00
2023-06-18T19:16:00.888Z,100.00
2023-06-18T19:18:27.852Z,100.00
2023-06-18T19:20:57.731Z,100.00
2023-06-18T19:23:24.689Z,100.00
2023-06-18T19:25:52.091Z,100.00
2023-06-18T19:28:19.129Z,100.00
2023-06-18T19:30:46.749Z,100.00
2023-06-18T19:33:13.442Z,100.00
2023-06-18T19:35:42.275Z,100.00
2023-06-18T19:38:08.991Z,100.00
2023-06-18T19:40:36.030Z,100.00
2023-06-18T19:43:03.291Z,100.00
2023-06-18T19:45:30.080Z,100.00
2023-06-18T19:47:56.882Z,100.00
2023-06-18T19:50:25.026Z,100.00
2023-06-18T19:52:52.425Z,100.00
2023-06-18T19:55:21.400Z,100.00
2023-06-18T19:57:51.869Z,100.00
2023-06-18T20:00:19.639Z,100.00
2023-06-18T20:02:46.731Z,100.00
2023-06-18T20:05:13.753Z,100.00
2023-06-18T20:07:41.159Z,100.00
2023-06-18T20:10:08.587Z,100.00
2023-06-18T20:12:35.729Z,100.00
2023-06-18T20:15:04.235Z,100.00
2023-06-18T20:17:31.078Z,100.00
2023-06-18T20:19:57.921Z,100.00
2023-06-18T20:22:25.330Z,100.00
2023-06-18T20:24:52.258Z,100.00
2023-06-18T20:27:19.270Z,100.00
2023-06-18T20:29:47.234Z,100.00
2023-06-18T20:32:14.107Z,100.00
2023-06-18T20:34:41.029Z,100.00
2023-06-18T20:37:08.571Z,100.00
2023-06-18T20:39:35.614Z,100.00
2023-06-18T20:42:02.630Z,100.00
2023-06-18T20:44:29.583Z,100.00
2023-06-18T20:46:56.535Z,100.00
2023-06-18T20:49:23.753Z,100.00
2023-06-18T20:51:50.555Z,100.00
2023-06-18T20:54:18.775Z,100.00
2023-06-18T20:56:46.694Z,100.00
2023-06-18T20:59:13.680Z,100.00
2023-06-18T21:01:40.455Z,100.00
2023-06-18T21:04:09.040Z,100.00
2023-06-18T21:06:39.281Z,100.00
2023-06-18T21:09:06.313Z,100.00
2023-06-18T21:11:33.164Z,100.00
2023-06-18T21:13:59.948Z,100.00
2023-06-18T21:16:27.004Z,100.00
2023-06-18T21:18:54.538Z,100.00
2023-06-18T21:21:23.482Z,100.00
2023-06-18T21:23:50.500Z,100.00
2023-06-18T21:26:17.292Z,100.00
2023-06-18T21:28:44.240Z,100.00
2023-06-18T21:31:11.939Z,100.00
2023-06-18T21:33:38.768Z,100.00
2023-06-18T21:36:06.140Z,100.00
2023-06-18T21:38:32.999Z,100.00
2023-06-18T21:41:00.279Z,100.00
2023-06-18T21:43:27.137Z,100.00
2023-06-18T21:45:54.555Z,100.00
2023-06-18T21:48:21.534Z,100.00
2023-06-18T21:50:48.397Z,100.00
2023-06-18T21:53:15.481Z,100.00
2023-06-18T21:55:45.542Z,100.00
2023-06-18T21:58:13.132Z,100.00
2023-06-18T22:00:39.946Z,100.00
2023-06-18T22:03:07.170Z,100.00
2023-06-18T22:05:34.784Z,100.00
2023-06-18T22:08:11.849Z,100.00
2023-06-18T22:10:42.993Z,100.00
2023-06-18T22:13:11.269Z,100.00
2023-06-18T22:15:38.580Z,100.00
2023-06-18T22:18:05.523Z,100.00
2023-06-18T22:20:32.399Z,100.00
2023-06-18T22:22:59.220Z,100.00
2023-06-18T22:25:26.216Z,100.00
2023-06-18T22:27:53.820Z,100.00
2023-06-18T22:30:20.804Z,100.00
2023-06-18T22:32:48.233Z,100.00
2023-06-18T22:35:15.457Z,100.00
2023-06-18T22:37:42.202Z,100.00
2023-06-18T22:40:09.551Z,100.00
2023-06-18T22:42:37.401Z,100.00
2023-06-18T22:45:04.647Z,100.00
2023-06-18T22:47:31.805Z,100.00
2023-06-18T22:49:58.658Z,100.00
2023-06-18T22:52:25.470Z,100.00
2023-06-18T22:54:52.496Z,100.00
2023-06-18T22:57:19.299Z,100.00
2023-06-18T22:59:46.186Z,100.00
2023-06-18T23:02:13.426Z,100.00
2023-06-18T23:04:40.235Z,100.00
2023-06-18T23:07:09.348Z,100.00
2023-06-18T23:09:36.254Z,100.00
2023-06-18T23:12:03.290Z,100.00
2023-06-18T23:14:30.203Z,100.00
2023-06-18T23:16:57.740Z,100.00
2023-06-18T23:19:25.114Z,100.00
2023-06-18T23:21:51.875Z,100.00
2023-06-18T23:24:20.362Z,100.00
2023-06-18T23:26:47.255Z,100.00
2023-06-18T23:29:14.164Z,100.00
2023-06-18T23:31:41.205Z,100.00
2023-06-18T23:34:08.241Z,100.00
2023-06-18T23:36:36.723Z,100.00
2023-06-18T23:39:04.977Z,100.00
2023-06-18T23:41:32.249Z,100.00
2023-06-18T23:43:59.573Z,100.00
2023-06-18T23:46:27.052Z,100.00
2023-06-18T23:48:54.293Z,100.00
2023-06-18T23:51:21.148Z,100.00
2023-06-18T23:53:48.726Z,100.00
2023-06-18T23:56:16.359Z,100.00
2023-06-18T23:58:43.713Z,100.00
